createdAt,value
2022-10-01T00:01:24.141Z,6.07
2022-10-01T00:03:50.836Z,5.70
2022-10-01T00:06:20.713Z,6.47
2022-10-01T00:08:49.459Z,6.50
2022-10-01T00:11:22.122Z,5.25
2022-10-01T00:13:50.227Z,8.05
2022-10-01T00:16:28.248Z,4.57
2022-10-01T00:18:55.484Z,6.13
2022-10-01T00:21:28.362Z,4.30
2022-10-01T00:24:00.501Z,4.80
2022-10-01T00:26:30.589Z,5.90
2022-10-01T00:29:04.463Z,6.50
2022-10-01T00:31:31.798Z,4.38
2022-10-01T00:34:00.475Z,7.03
2022-10-01T00:36:27.501Z,4.65
2022-10-01T00:39:00.665Z,6.45
2022-10-01T00:41:33.610Z,6.40
2022-10-01T00:44:03.856Z,5.93
2022-10-01T00:46:48.429Z,5.68
2022-10-01T00:49:20.739Z,4.95
2022-10-01T00:51:52.395Z,5.65
2022-10-01T00:54:51.292Z,5.57
2022-10-01T00:57:24.170Z,4.80
2022-10-01T00:59:54.456Z,2.72
2022-10-01T01:02:21.130Z,4.15
2022-10-01T01:04:48.257Z,4.22
2022-10-01T01:07:15.948Z,4.80
2022-10-01T01:09:46.961Z,4.10
2022-10-01T01:12:35.242Z,3.28
2022-10-01T01:15:40.653Z,4.03
2022-10-01T01:18:13.414Z,4.55
2022-10-01T01:21:16.224Z,5.20
2022-10-01T01:23:55.148Z,4.70
2022-10-01T01:26:31.664Z,3.83
2022-10-01T01:29:09.289Z,9.93
2022-10-01T01:31:40.423Z,4.93
2022-10-01T01:34:13.439Z,4.20
2022-10-01T01:36:48.375Z,3.85
2022-10-01T01:39:17.624Z,3.42
2022-10-01T01:41:52.091Z,3.47
2022-10-01T01:44:24.840Z,2.67
2022-10-01T01:46:55.115Z,2.40
2022-10-01T01:49:22.753Z,3.30
2022-10-01T01:52:11.593Z,2.95
2022-10-01T01:54:38.630Z,2.83
2022-10-01T01:57:06.753Z,3.90
2022-10-01T01:59:36.763Z,4.63
2022-10-01T02:02:06.660Z,3.00
2022-10-01T02:04:51.159Z,2.90
2022-10-01T02:07:29.227Z,2.97
2022-10-01T02:10:18.042Z,2.10
2022-10-01T02:13:10.789Z,2.03
2022-10-01T02:16:01.308Z,2.40
2022-10-01T02:21:41.991Z,1.85
2022-10-01T02:24:33.974Z,4.18
2022-10-01T02:27:06.202Z,3.08
2022-10-01T02:29:35.239Z,5.07
2022-10-01T02:32:02.500Z,2.55
2022-10-01T02:34:30.892Z,2.20
2022-10-01T02:37:01.201Z,1.80
2022-10-01T02:39:31.467Z,1.80
2022-10-01T02:42:00.312Z,1.50
2022-10-01T02:44:37.877Z,1.60
2022-10-01T02:47:40.748Z,3.50
2022-10-01T02:50:08.605Z,1.67
2022-10-01T02:53:06.987Z,3.08
2022-10-01T02:55:37.662Z,1.60
2022-10-01T02:58:05.116Z,1.55
2022-10-01T03:00:33.060Z,2.83
2022-10-01T03:02:59.901Z,2.08
2022-10-01T03:05:26.814Z,1.60
2022-10-01T03:07:53.876Z,1.50
2022-10-01T03:10:20.716Z,1.85
2022-10-01T03:12:47.434Z,2.13
2022-10-01T03:15:16.182Z,1.13
2022-10-01T03:17:43.093Z,1.60
2022-10-01T03:20:10.806Z,1.70
2022-10-01T03:22:37.975Z,2.35
2022-10-01T03:25:05.219Z,1.60
2022-10-01T03:27:31.996Z,3.15
2022-10-01T03:29:58.707Z,2.35
2022-10-01T03:32:25.508Z,1.73
2022-10-01T03:34:52.211Z,1.25
2022-10-01T03:37:19.045Z,1.77
2022-10-01T03:39:45.688Z,1.80
2022-10-01T03:42:12.393Z,4.60
2022-10-01T03:44:39.128Z,1.75
2022-10-01T03:47:05.853Z,2.00
2022-10-01T03:49:33.473Z,2.00
2022-10-01T03:52:01.351Z,3.08
2022-10-01T03:54:30.360Z,2.28
2022-10-01T03:56:57.360Z,2.63
2022-10-01T03:59:27.133Z,3.03
2022-10-01T04:01:54.314Z,2.78
2022-10-01T04:04:22.201Z,3.78
2022-10-01T04:06:48.955Z,2.78
2022-10-01T04:09:15.669Z,2.75
2022-10-01T04:11:42.439Z,2.95
2022-10-01T04:14:09.161Z,2.60
2022-10-01T04:16:36.261Z,2.92
2022-10-01T04:19:04.670Z,3.28
2022-10-01T04:21:31.694Z,5.95
2022-10-01T04:23:59.630Z,2.90
2022-10-01T04:26:27.042Z,5.20
2022-10-01T04:28:53.808Z,3.03
2022-10-01T04:31:26.606Z,3.55
2022-10-01T04:33:55.237Z,3.13
2022-10-01T04:36:25.635Z,6.03
2022-10-01T04:38:57.879Z,3.15
2022-10-01T04:41:26.284Z,3.25
2022-10-01T04:43:53.012Z,3.58
2022-10-01T04:46:19.691Z,3.47
2022-10-01T04:48:49.028Z,3.50
2022-10-01T04:51:16.884Z,3.47
2022-10-01T04:53:43.979Z,3.65
2022-10-01T04:56:10.723Z,3.75
2022-10-01T04:58:38.576Z,3.38
2022-10-01T05:01:05.435Z,4.28
2022-10-01T05:03:32.165Z,4.35
2022-10-01T05:05:58.825Z,6.93
2022-10-01T05:08:25.489Z,7.53
2022-10-01T05:10:53.116Z,5.50
2022-10-01T05:13:20.896Z,6.82
2022-10-01T05:15:52.186Z,3.80
2022-10-01T05:18:19.246Z,3.95
2022-10-01T05:20:46.124Z,4.00
2022-10-01T05:23:12.827Z,4.75
2022-10-01T05:25:39.636Z,3.85
2022-10-01T05:28:07.448Z,3.90
2022-10-01T05:30:34.551Z,5.18
2022-10-01T05:33:03.529Z,4.35
2022-10-01T05:35:30.461Z,7.03
2022-10-01T05:38:16.977Z,4.70
2022-10-01T05:40:51.495Z,4.55
2022-10-01T05:43:19.440Z,4.68
2022-10-01T05:45:49.855Z,7.07
2022-10-01T05:50:44.156Z,4.45
2022-10-01T05:53:16.056Z,6.47
2022-10-01T05:55:43.523Z,5.93
2022-10-01T05:58:12.464Z,4.50
2022-10-01T06:00:40.717Z,4.35
2022-10-01T06:03:07.866Z,4.22
2022-10-01T06:05:35.736Z,6.25
2022-10-01T06:08:06.264Z,5.05
2022-10-01T06:13:05.385Z,4.25
2022-10-01T06:15:34.472Z,4.38
2022-10-01T06:18:08.829Z,4.00
2022-10-01T06:20:36.445Z,4.65
2022-10-01T06:23:08.445Z,3.95
2022-10-01T06:25:37.246Z,3.60
2022-10-01T06:28:07.302Z,5.05
2022-10-01T06:30:49.048Z,4.40
2022-10-01T06:33:19.965Z,4.50
2022-10-01T06:35:50.660Z,4.93
2022-10-01T06:38:22.341Z,8.32
2022-10-01T06:40:57.864Z,5.82
2022-10-01T06:43:26.546Z,6.82
2022-10-01T06:45:53.370Z,7.57
2022-10-01T06:48:20.614Z,3.88
2022-10-01T06:50:49.600Z,4.03
2022-10-01T06:53:17.677Z,5.53
2022-10-01T06:55:44.811Z,5.50
2022-10-01T06:58:17.397Z,4.03
2022-10-01T07:00:44.600Z,4.72
2022-10-01T07:03:20.148Z,5.72
2022-10-01T07:05:47.400Z,4.90
2022-10-01T07:08:14.150Z,4.47
2022-10-01T07:10:41.787Z,4.75
2022-10-01T07:13:10.564Z,6.25
2022-10-01T07:15:39.087Z,6.93
2022-10-01T07:18:06.369Z,6.18
2022-10-01T07:20:35.947Z,6.32
2022-10-01T07:23:02.882Z,7.30
2022-10-01T07:25:30.698Z,7.32
2022-10-01T07:28:00.067Z,7.95
2022-10-01T07:30:27.918Z,5.80
2022-10-01T07:32:54.675Z,9.45
2022-10-01T07:35:21.674Z,4.45
2022-10-01T07:37:49.618Z,5.93
2022-10-01T07:40:17.860Z,8.30
2022-10-01T07:42:56.298Z,7.30
2022-10-01T07:45:23.858Z,3.05
2022-10-01T07:47:59.082Z,4.95
2022-10-01T07:50:26.848Z,5.80
2022-10-01T07:52:56.104Z,4.70
2022-10-01T07:55:26.458Z,6.40
2022-10-01T07:57:55.106Z,6.55
2022-10-01T08:00:23.777Z,4.97
2022-10-01T08:02:53.555Z,7.38
2022-10-01T08:05:21.807Z,5.65
2022-10-01T08:07:49.651Z,9.23
2022-10-01T08:10:19.223Z,4.47
2022-10-01T08:12:46.115Z,3.23
2022-10-01T08:15:17.424Z,8.93
2022-10-01T08:17:45.174Z,5.60
2022-10-01T08:20:13.151Z,4.78
2022-10-01T08:22:42.649Z,7.18
2022-10-01T08:25:10.008Z,7.90
2022-10-01T08:27:36.830Z,6.85
2022-10-01T08:30:04.536Z,6.70
2022-10-01T08:32:31.667Z,8.38
2022-10-01T08:35:00.066Z,8.52
2022-10-01T08:37:28.418Z,7.15
2022-10-01T08:39:56.459Z,7.53
2022-10-01T08:42:36.397Z,9.05
2022-10-01T08:45:12.638Z,5.40
2022-10-01T08:47:49.383Z,6.20
2022-10-01T08:50:40.239Z,8.32
2022-10-01T08:53:15.309Z,11.02
2022-10-01T08:55:42.751Z,6.65
2022-10-01T08:58:15.983Z,11.60
2022-10-01T09:00:46.425Z,6.70
2022-10-01T09:05:53.408Z,6.10
2022-10-01T09:08:24.007Z,7.10
2022-10-01T09:10:58.641Z,8.80
2022-10-01T09:13:34.624Z,13.20
2022-10-01T09:16:31.246Z,6.53
2022-10-01T09:19:26.602Z,10.80
2022-10-01T09:22:03.449Z,13.18
2022-10-01T09:24:50.469Z,10.02
2022-10-01T09:27:26.449Z,11.18
2022-10-01T09:30:12.327Z,11.18
2022-10-01T09:32:44.811Z,12.82
2022-10-01T09:35:45.066Z,13.93
2022-10-01T09:38:49.719Z,15.38
2022-10-01T09:41:17.605Z,12.50
2022-10-01T09:43:44.804Z,10.43
2022-10-01T09:46:17.413Z,15.55
2022-10-01T09:49:13.140Z,7.22
2022-10-01T09:51:46.222Z,15.65
2022-10-01T09:54:27.846Z,15.00
2022-10-01T09:57:22.727Z,11.65
2022-10-01T09:59:57.201Z,7.47
2022-10-01T10:02:43.363Z,13.82
2022-10-01T10:05:15.677Z,10.25
2022-10-01T10:07:51.741Z,7.80
2022-10-01T10:10:35.723Z,13.23
2022-10-01T10:13:06.334Z,15.10
2022-10-01T10:15:33.213Z,12.13
2022-10-01T10:18:11.711Z,7.45
2022-10-01T10:20:42.140Z,11.25
2022-10-01T10:26:07.281Z,16.38
2022-10-01T10:28:46.193Z,12.68
2022-10-01T10:31:21.836Z,7.45
2022-10-01T10:33:53.529Z,9.45
2022-10-01T10:36:29.872Z,12.82
2022-10-01T10:38:58.303Z,13.20
2022-10-01T10:41:26.614Z,10.00
2022-10-01T10:44:06.467Z,17.58
2022-10-01T10:46:36.181Z,7.78
2022-10-01T10:49:15.412Z,7.95
2022-10-01T10:51:51.639Z,6.57
2022-10-01T10:54:24.118Z,6.03
2022-10-01T10:57:02.601Z,7.90
2022-10-01T10:59:32.113Z,8.32
2022-10-01T11:02:05.480Z,7.18
2022-10-01T11:04:34.947Z,4.97
2022-10-01T11:07:01.725Z,13.13
2022-10-01T11:09:54.837Z,11.05
2022-10-01T11:12:31.851Z,6.65
2022-10-01T11:15:09.316Z,8.13
2022-10-01T11:18:24.133Z,7.55
2022-10-01T11:21:14.836Z,9.52
2022-10-01T11:24:00.508Z,11.48
2022-10-01T11:26:44.002Z,6.13
2022-10-01T11:29:23.850Z,11.02
2022-10-01T11:32:09.607Z,6.68
2022-10-01T11:35:19.205Z,12.93
2022-10-01T11:38:00.357Z,9.45
2022-10-01T11:40:39.239Z,11.18
2022-10-01T11:43:23.233Z,13.50
2022-10-01T11:45:56.352Z,7.45
2022-10-01T11:48:33.727Z,9.18
2022-10-01T11:51:05.802Z,9.52
2022-10-01T11:53:38.652Z,7.03
2022-10-01T11:56:32.919Z,8.07
2022-10-01T11:59:28.435Z,11.73
2022-10-01T12:02:15.243Z,15.52
2022-10-01T12:05:09.858Z,11.25
2022-10-01T12:07:56.970Z,7.82
2022-10-01T12:10:46.088Z,8.40
2022-10-01T12:13:32.731Z,13.00
2022-10-01T12:16:28.599Z,7.90
2022-10-01T12:19:02.916Z,14.43
2022-10-01T12:21:41.610Z,11.88
2022-10-01T12:24:22.023Z,9.20
2022-10-01T12:29:55.252Z,10.07
2022-10-01T12:32:34.315Z,12.48
2022-10-01T12:35:07.427Z,6.93
2022-10-01T12:38:04.412Z,5.97
2022-10-01T12:40:34.354Z,8.05
2022-10-01T12:43:04.512Z,11.85
2022-10-01T12:48:33.747Z,7.65
2022-10-01T12:51:34.602Z,11.80
2022-10-01T12:54:25.163Z,15.18
2022-10-01T12:59:27.150Z,8.63
2022-10-01T13:02:31.208Z,6.38
2022-10-01T13:05:15.580Z,8.77
2022-10-01T13:08:01.032Z,11.50
2022-10-01T13:10:52.074Z,13.38
2022-10-01T13:13:38.589Z,19.65
2022-10-01T13:16:29.346Z,11.63
2022-10-01T13:19:07.663Z,15.25
2022-10-01T13:22:10.034Z,12.45
2022-10-01T13:25:01.312Z,11.82
2022-10-01T13:27:40.514Z,12.18
2022-10-01T13:30:18.927Z,7.18
2022-10-01T13:32:53.359Z,9.85
2022-10-01T13:35:40.403Z,10.02
2022-10-01T13:38:29.326Z,15.57
2022-10-01T13:41:00.140Z,6.57
2022-10-01T13:43:27.323Z,14.43
2022-10-01T13:45:55.293Z,13.02
2022-10-01T13:48:34.657Z,14.55
2022-10-01T13:51:13.955Z,13.35
2022-10-01T13:53:43.946Z,12.55
2022-10-01T13:56:15.361Z,9.30
2022-10-01T13:58:46.539Z,15.43
2022-10-01T14:01:19.960Z,8.70
2022-10-01T14:04:31.758Z,12.52
2022-10-01T14:07:12.564Z,8.40
2022-10-01T14:09:49.544Z,13.90
2022-10-01T14:12:49.470Z,12.98
2022-10-01T14:15:44.179Z,12.05
2022-10-01T14:18:23.403Z,16.80
2022-10-01T14:21:04.645Z,10.70
2022-10-01T14:23:54.155Z,19.50
2022-10-01T14:26:36.783Z,7.35
2022-10-01T14:29:17.024Z,12.63
2022-10-01T14:31:55.668Z,11.45
2022-10-01T14:34:33.743Z,11.23
2022-10-01T14:37:01.113Z,9.25
2022-10-01T14:39:33.165Z,15.23
2022-10-01T14:42:16.498Z,9.20
2022-10-01T14:44:46.414Z,12.45
2022-10-01T14:47:24.271Z,11.35
2022-10-01T14:49:51.799Z,15.13
2022-10-01T14:52:26.265Z,10.27
2022-10-01T14:55:00.354Z,9.57
2022-10-01T14:57:46.813Z,15.60
2022-10-01T15:00:19.402Z,14.73
2022-10-01T15:03:02.512Z,12.55
2022-10-01T15:05:31.904Z,11.60
2022-10-01T15:08:02.270Z,13.93
2022-10-01T15:12:56.349Z,11.02
2022-10-01T15:15:39.543Z,11.77
2022-10-01T15:18:06.959Z,8.65
2022-10-01T15:20:34.511Z,9.60
2022-10-01T15:23:01.909Z,14.07
2022-10-01T15:25:31.682Z,11.02
2022-10-01T15:28:00.124Z,14.43
2022-10-01T15:30:28.074Z,10.05
2022-10-01T15:32:55.353Z,10.55
2022-10-01T15:35:23.778Z,10.95
2022-10-01T15:37:51.819Z,9.73
2022-10-01T15:40:30.307Z,16.08
2022-10-01T15:43:12.774Z,15.57
2022-10-01T15:45:40.428Z,10.45
2022-10-01T15:48:31.771Z,6.10
2022-10-01T15:51:29.951Z,5.60
2022-10-01T15:54:08.508Z,8.52
2022-10-01T15:56:35.607Z,8.35
2022-10-01T15:59:18.733Z,10.82
2022-10-01T16:01:45.507Z,11.25
2022-10-01T16:04:14.292Z,9.63
2022-10-01T16:06:47.341Z,11.40
2022-10-01T16:09:22.125Z,13.65
2022-10-01T16:11:55.229Z,13.68
2022-10-01T16:14:30.198Z,18.20
2022-10-01T16:17:18.657Z,16.40
2022-10-01T16:19:49.918Z,10.13
2022-10-01T16:22:19.745Z,15.35
2022-10-01T16:25:01.508Z,6.88
2022-10-01T16:27:49.791Z,7.22
2022-10-01T16:30:26.971Z,7.70
2022-10-01T16:33:00.221Z,13.50
2022-10-01T16:35:29.324Z,7.78
2022-10-01T16:37:57.955Z,7.32
2022-10-01T16:40:31.043Z,8.68
2022-10-01T16:43:00.232Z,6.82
2022-10-01T16:45:32.623Z,11.52
2022-10-01T16:48:00.598Z,5.97
2022-10-01T16:50:27.368Z,7.47
2022-10-01T16:52:55.718Z,6.63
2022-10-01T16:55:26.441Z,10.27
2022-10-01T16:57:54.752Z,10.63
2022-10-01T17:00:24.077Z,9.60
2022-10-01T17:02:50.866Z,12.85
2022-10-01T17:05:38.631Z,12.07
2022-10-01T17:08:11.162Z,8.52
2022-10-01T17:10:44.055Z,10.00
2022-10-01T17:13:14.128Z,7.90
2022-10-01T17:15:42.448Z,5.10
2022-10-01T17:18:09.761Z,15.70
2022-10-01T17:20:40.239Z,8.73
2022-10-01T17:25:38.426Z,7.07
2022-10-01T17:28:08.279Z,8.90
2022-10-01T17:30:35.491Z,9.23
2022-10-01T17:33:03.293Z,4.07
2022-10-01T17:35:30.308Z,5.88
2022-10-01T17:37:58.318Z,8.38
2022-10-01T17:40:25.507Z,6.38
2022-10-01T17:42:54.264Z,13.00
2022-10-01T17:45:21.009Z,6.65
2022-10-01T17:48:36.185Z,6.03
2022-10-01T17:51:06.158Z,8.30
2022-10-01T17:53:42.113Z,7.82
2022-10-01T17:56:18.917Z,5.65
2022-10-01T17:58:46.472Z,7.10
2022-10-01T18:01:21.953Z,8.40
2022-10-01T18:03:53.382Z,6.60
2022-10-01T18:06:20.100Z,9.43
2022-10-01T18:09:01.720Z,7.53
2022-10-01T18:11:29.160Z,7.18
2022-10-01T18:13:56.470Z,7.95
2022-10-01T18:16:24.254Z,13.25
2022-10-01T18:21:45.708Z,6.63
2022-10-01T18:24:12.911Z,8.52
2022-10-01T18:26:39.782Z,10.05
2022-10-01T18:29:06.517Z,12.75
2022-10-01T18:31:39.330Z,13.32
2022-10-01T18:34:20.525Z,11.02
2022-10-01T18:37:04.401Z,9.90
2022-10-01T18:39:47.315Z,6.80
2022-10-01T18:42:44.110Z,8.63
2022-10-01T18:45:18.288Z,5.95
2022-10-01T18:48:04.070Z,9.55
2022-10-01T18:50:37.482Z,11.82
2022-10-01T18:53:29.254Z,8.90
2022-10-01T18:56:25.896Z,12.45
2022-10-01T18:59:04.633Z,12.88
2022-10-01T19:01:59.836Z,6.15
2022-10-01T19:04:38.773Z,8.25
2022-10-01T19:07:28.077Z,9.45
2022-10-01T19:10:22.285Z,10.65
2022-10-01T19:13:24.109Z,10.57
2022-10-01T19:16:32.217Z,8.52
2022-10-01T19:19:07.626Z,7.38
2022-10-01T19:22:03.492Z,10.27
2022-10-01T19:24:48.471Z,10.85
2022-10-01T19:27:39.443Z,7.88
2022-10-01T19:30:14.234Z,14.05
2022-10-01T19:33:01.921Z,7.03
2022-10-01T19:35:36.210Z,8.68
2022-10-01T19:38:14.606Z,12.35
2022-10-01T19:41:05.968Z,8.88
2022-10-01T19:43:57.434Z,12.45
2022-10-01T19:46:49.689Z,8.63
2022-10-01T19:49:22.575Z,8.10
2022-10-01T19:51:57.424Z,10.55
2022-10-01T19:54:31.683Z,13.05
2022-10-01T19:57:09.816Z,14.60
2022-10-01T19:59:36.513Z,12.25
2022-10-01T20:02:16.337Z,16.50
2022-10-01T20:04:57.811Z,8.77
2022-10-01T20:07:29.978Z,6.65
2022-10-01T20:10:20.601Z,6.05
2022-10-01T20:13:13.425Z,13.18
2022-10-01T20:16:03.132Z,7.80
2022-10-01T20:18:58.648Z,5.13
2022-10-01T20:21:55.120Z,10.60
2022-10-01T20:24:49.238Z,7.80
2022-10-01T20:27:36.967Z,14.07
2022-10-01T20:30:04.835Z,11.07
2022-10-01T20:32:47.379Z,14.60
2022-10-01T20:35:30.105Z,6.68
2022-10-01T20:38:20.049Z,5.97
2022-10-01T20:40:58.549Z,8.90
2022-10-01T20:43:44.643Z,4.43
2022-10-01T20:46:38.176Z,12.65
2022-10-01T20:49:14.084Z,14.65
2022-10-01T20:51:55.659Z,10.88
2022-10-01T20:54:32.447Z,8.85
2022-10-01T20:57:05.721Z,10.63
2022-10-01T20:59:44.835Z,12.25
2022-10-01T21:02:26.837Z,15.43
2022-10-01T21:05:05.303Z,11.23
2022-10-01T21:07:56.799Z,9.95
2022-10-01T21:10:49.590Z,12.90
2022-10-01T21:13:19.389Z,10.82
2022-10-01T21:15:59.828Z,18.00
2022-10-01T21:21:16.842Z,9.07
2022-10-01T21:24:04.929Z,10.85
2022-10-01T21:26:37.982Z,9.30
2022-10-01T21:29:19.359Z,12.93
2022-10-01T21:32:25.312Z,12.55
2022-10-01T21:35:07.434Z,13.15
2022-10-01T21:37:39.813Z,10.85
2022-10-01T21:40:12.624Z,8.43
2022-10-01T21:42:48.698Z,16.52
2022-10-01T21:45:39.104Z,13.82
2022-10-01T21:48:22.319Z,13.98
2022-10-01T21:51:01.973Z,12.00
2022-10-01T21:53:53.819Z,17.30
2022-10-01T21:56:45.457Z,14.98
2022-10-01T21:59:27.160Z,11.90
2022-10-01T22:02:04.448Z,13.00
2022-10-01T22:04:48.426Z,21.05
2022-10-01T22:07:23.922Z,14.75
2022-10-01T22:10:16.209Z,13.55
2022-10-01T22:12:47.460Z,18.40
2022-10-01T22:15:26.513Z,18.63
2022-10-01T22:17:55.160Z,13.23
2022-10-01T22:20:28.847Z,14.15
2022-10-01T22:22:59.244Z,17.45
2022-10-01T22:28:02.734Z,15.30
2022-10-01T22:30:33.714Z,16.90
2022-10-01T22:33:14.624Z,18.23
2022-10-01T22:36:02.299Z,15.18
2022-10-01T22:38:33.315Z,13.75
2022-10-01T22:41:27.634Z,13.52
2022-10-01T22:43:54.503Z,12.70
2022-10-01T22:46:33.823Z,23.75
2022-10-01T22:49:36.904Z,13.70
2022-10-01T22:52:49.038Z,15.40
2022-10-01T22:55:39.064Z,16.63
2022-10-01T22:58:08.972Z,17.88
2022-10-01T23:00:52.912Z,18.00
2022-10-01T23:03:46.215Z,15.30
2022-10-01T23:06:19.536Z,18.80
2022-10-01T23:09:01.679Z,12.68
2022-10-01T23:11:42.379Z,13.80
2022-10-01T23:14:28.660Z,13.50
2022-10-01T23:17:18.768Z,10.55
2022-10-01T23:19:57.933Z,17.40
2022-10-01T23:22:47.192Z,16.05
2022-10-01T23:25:28.526Z,15.55
2022-10-01T23:28:28.176Z,13.70
2022-10-01T23:31:10.498Z,13.77
2022-10-01T23:34:01.521Z,17.35
2022-10-01T23:36:46.994Z,18.00
2022-10-01T23:39:16.423Z,11.43
2022-10-01T23:41:55.060Z,9.95
2022-10-01T23:44:49.853Z,16.95
2022-10-01T23:47:22.879Z,13.32
2022-10-01T23:49:55.530Z,14.30
2022-10-01T23:52:44.127Z,13.73
2022-10-01T23:55:55.967Z,11.15
2022-10-01T23:58:24.153Z,16.00
